Humidity-temperature Sensor

Selected Measurement Type: Relative Humidity

 
Relative Humidity [%]     6 entries per hour
Showing data from 3/22/2015 (00:00:00 Z) to 3/19/2015 (00:01:00 Z)
Previous Next [ Day | 3-Days | 7-Days ]
First Last
Prev [ Day | 3-Days | 7-Days ] Next
First Last

Start Time:     :
End Time:     :     
Time (in GMT) :00 :50 :40 :30 :20 :10
Previous Next [ Day | 3-Days | 7-Days ]
First Last
Prev [ Day | 3-Days | 7-Days ] Next
First Last


123 => good data
MM => data is determined as missing
-- => data not received/configured
Back to Top Back to Top
3/22/2015 00:00 to 23:10 78.58 78.00 77.69 79.37 79.66 79.37
3/21/2015 23:00 to 22:10 79.14 77.71 80.02 80.14 79.54 78.96
3/21/2015 22:00 to 21:10 80.20 79.23 80.29 80.06 78.89 80.08
3/21/2015 21:00 to 20:10 79.29 78.96 79.75 80.56 80.95 79.54
3/21/2015 20:00 to 19:10 79.31 78.94 78.21 78.94 79.14 80.35
3/21/2015 19:00 to 18:10 80.08 78.17 78.50 78.50 77.94 79.21
3/21/2015 18:00 to 17:10 79.06 79.64 79.81 79.18 77.77 78.04
3/21/2015 17:00 to 16:10 78.33 77.44 77.27 77.42 78.98 76.96
3/21/2015 16:00 to 15:10 76.52 77.02 77.71 77.48 77.27 77.23
3/21/2015 15:00 to 14:10 78.69 79.52 80.29 80.70 80.37 81.99
3/21/2015 14:00 to 13:10 81.68 81.01 80.49 79.85 80.85 79.97
3/21/2015 13:00 to 12:10 79.52 80.22 79.41 79.77 79.58 80.31
3/21/2015 12:00 to 11:10 81.12 80.49 80.12 80.25 80.39 79.29
3/21/2015 11:00 to 10:10 80.45 80.49 80.29 79.52 80.70 80.47
3/21/2015 10:00 to 9:10 80.39 80.58 81.12 79.54 78.83 80.49
3/21/2015 09:00 to 8:10 80.52 79.89 79.73 80.00 80.16 80.12
3/21/2015 08:00 to 7:10 79.89 79.79 80.72 79.43 80.04 78.98
3/21/2015 07:00 to 6:10 79.33 79.70 79.79 80.06 79.64 79.83
3/21/2015 06:00 to 5:10 79.39 80.08 79.35 80.52 79.95 79.50
3/21/2015 05:00 to 4:10 79.29 79.54 80.39 79.97 79.89 81.01
3/21/2015 04:00 to 3:10 80.43 79.95 79.02 81.28 79.27 79.31
3/21/2015 03:00 to 2:10 79.75 79.54 81.18 80.66 79.77 79.93
3/21/2015 02:00 to 1:10 79.04 78.27 77.54 79.56 77.67 78.62
3/21/2015 01:00 to 0:10 79.73 79.39 79.14 76.77 76.54 79.56
3/21/2015 00:00 to 23:10 78.12 76.98 78.12 79.54 79.52 78.27
3/20/2015 23:00 to 22:10 78.10 78.64 77.85 79.00 78.87 79.58
3/20/2015 22:00 to 21:10 79.56 79.35 80.33 78.96 80.35 79.73
3/20/2015 21:00 to 20:10 80.08 80.14 80.47 78.54 80.79 79.62
3/20/2015 20:00 to 19:10 79.21 78.73 78.67 78.48 78.46 77.96
3/20/2015 19:00 to 18:10 78.54 77.88 78.02 78.27 78.31 78.60
3/20/2015 18:00 to 17:10 78.52 77.88 79.06 78.44 78.06 78.91
3/20/2015 17:00 to 16:10 79.12 77.54 78.15 76.40 77.58 77.61
3/20/2015 16:00 to 15:10 76.38 76.05 76.03 77.48 77.88 77.83
3/20/2015 15:00 to 14:10 78.67 79.06 80.95 80.89 81.16 81.01
3/20/2015 14:00 to 13:10 80.79 80.91 81.58 81.43 82.39 83.09
3/20/2015 13:00 to 12:10 81.93 81.72 81.82 82.55 81.28 82.66
3/20/2015 12:00 to 11:10 82.64 81.51 82.12 82.74 82.22 82.64
3/20/2015 11:00 to 10:10 81.18 81.87 81.49 81.58 81.04 81.28
3/20/2015 10:00 to 9:10 81.16 81.08 80.95 81.37 82.24 82.10
3/20/2015 09:00 to 8:10 82.57 82.18 81.85 82.76 82.45 82.22
3/20/2015 08:00 to 7:10 82.22 81.55 81.31 81.06 80.04 79.64
3/20/2015 07:00 to 6:10 80.20 80.37 81.08 80.14 79.52 80.64
3/20/2015 06:00 to 5:10 80.56 79.75 81.14 80.49 79.85 79.50
3/20/2015 05:00 to 4:10 79.23 79.27 79.21 79.21 79.70 79.85
3/20/2015 04:00 to 3:10 78.46 79.10 79.73 79.43 78.58 77.83
3/20/2015 03:00 to 2:10 77.13 76.21 77.63 77.75 77.40 78.23
3/20/2015 02:00 to 1:10 76.42 76.92 78.02 77.71 76.82 75.84
3/20/2015 01:00 to 0:10 76.23 77.40 77.56 77.27 76.46 77.48
3/20/2015 00:00 to 23:10 77.33 77.73 77.75 77.48 79.35 76.61
3/19/2015 23:00 to 22:10 76.48 77.90 77.17 78.19 76.34 75.86
3/19/2015 22:00 to 21:10 76.36 76.40 76.63 76.34 78.27 75.34
3/19/2015 21:00 to 20:10 76.84 76.54 78.60 79.87 79.25 78.46
3/19/2015 20:00 to 19:10 78.12 78.73 79.08 79.16 78.91 78.37
3/19/2015 19:00 to 18:10 79.50 78.15 76.96 77.50 77.98 78.35
3/19/2015 18:00 to 17:10 79.12 78.67 79.37 78.79 77.21 77.73
3/19/2015 17:00 to 16:10 77.79 77.63 76.71 76.09 78.79 80.37
3/19/2015 16:00 to 15:10 78.91 78.44 76.42 77.25 77.19 77.98
3/19/2015 15:00 to 14:10 78.77 79.04 78.77 79.95 80.64 80.66
3/19/2015 14:00 to 13:10 79.97 79.83 79.08 79.68 79.64 78.67
3/19/2015 13:00 to 12:10 78.31 78.29 78.73 80.22 81.14 81.70
3/19/2015 12:00 to 11:10 79.95 79.85 80.72 79.39 78.23 80.06
3/19/2015 11:00 to 10:10 80.89 80.20 80.33 79.83 80.35 81.08
3/19/2015 10:00 to 9:10 80.54 82.20 81.68 80.35 80.56 79.83
3/19/2015 09:00 to 8:10 80.29 81.18 81.49 82.30 81.97 82.72
3/19/2015 08:00 to 7:10 83.13 81.97 80.74 80.43 80.18 80.49
3/19/2015 07:00 to 6:10 81.26 80.87 79.60 79.41 78.58 80.18
3/19/2015 06:00 to 5:10 80.39 78.69 78.79 78.56 78.00 78.67
3/19/2015 05:00 to 4:10 79.21 77.58 79.33 77.31 77.15 78.27
3/19/2015 04:00 to 3:10 78.21 78.27 78.29 77.96 78.81 77.54
3/19/2015 03:00 to 2:10 77.92 76.54 77.73 76.92 77.23 78.46
3/19/2015 02:00 to 1:10 -- -- -- -- -- --
3/19/2015 01:00 to 0:10 78.21 77.67 78.00 77.11 79.33 78.83